createdAt,value
2018-08-11T00:01:01.374Z,53.13
2018-08-11T00:03:31.918Z,52.41
2018-08-11T00:06:01.695Z,52.42
2018-08-11T00:08:31.456Z,52.84
2018-08-11T00:11:01.409Z,52.65
2018-08-11T00:13:31.097Z,52.50
2018-08-11T00:16:00.801Z,52.87
2018-08-11T00:18:30.498Z,52.17
2018-08-11T00:21:00.178Z,52.57
2018-08-11T00:23:29.827Z,52.79
2018-08-11T00:25:59.604Z,54.13
2018-08-11T00:28:29.264Z,53.66
2018-08-11T00:30:58.979Z,53.96
2018-08-11T00:33:28.702Z,54.20
2018-08-11T00:35:58.425Z,54.48
2018-08-11T00:38:28.205Z,53.19
2018-08-11T00:40:57.878Z,53.39
2018-08-11T00:43:27.685Z,53.65
2018-08-11T00:45:57.419Z,53.16
2018-08-11T00:48:27.161Z,53.51
2018-08-11T00:50:57.063Z,52.98
2018-08-11T00:53:26.787Z,52.78
2018-08-11T00:55:56.621Z,52.85
2018-08-11T00:58:26.523Z,52.09
2018-08-11T01:00:56.324Z,52.77
2018-08-11T01:03:26.045Z,53.49
2018-08-11T01:05:55.765Z,53.29
2018-08-11T01:08:25.418Z,52.68
2018-08-11T01:10:55.093Z,53.03
2018-08-11T01:13:24.805Z,54.39
2018-08-11T01:15:54.497Z,54.37
2018-08-11T01:18:24.153Z,54.79
2018-08-11T01:20:53.885Z,54.70
2018-08-11T01:23:23.686Z,55.60
2018-08-11T01:25:53.330Z,54.95
2018-08-11T01:28:22.977Z,54.42
2018-08-11T01:30:52.678Z,54.15
2018-08-11T01:33:22.338Z,53.79
2018-08-11T01:35:52.073Z,55.93
2018-08-11T01:38:21.794Z,57.38
2018-08-11T01:40:51.561Z,59.46
2018-08-11T01:43:21.253Z,59.24
2018-08-11T01:45:50.881Z,60.70
2018-08-11T01:48:20.564Z,63.75
2018-08-11T01:50:50.313Z,65.61
2018-08-11T01:53:19.976Z,64.71
2018-08-11T01:55:49.726Z,65.63
2018-08-11T01:58:19.391Z,66.11
2018-08-11T02:00:49.098Z,65.86
2018-08-11T02:03:18.774Z,66.58
2018-08-11T02:05:48.422Z,67.86
2018-08-11T02:08:18.399Z,68.04
2018-08-11T02:10:48.249Z,68.68
2018-08-11T02:13:18.018Z,69.86
2018-08-11T02:15:47.768Z,70.29
2018-08-11T02:18:17.481Z,71.08
2018-08-11T02:20:47.278Z,70.72
2018-08-11T02:23:16.929Z,70.87
2018-08-11T02:25:46.621Z,71.27
2018-08-11T02:28:16.372Z,71.03
2018-08-11T02:30:46.130Z,71.55
2018-08-11T02:33:15.830Z,72.57
2018-08-11T02:35:45.570Z,73.96
2018-08-11T02:38:15.246Z,75.71
2018-08-11T02:40:44.900Z,77.29
2018-08-11T02:43:14.578Z,78.22
2018-08-11T02:45:44.337Z,78.21
2018-08-11T02:48:14.102Z,79.73
2018-08-11T02:50:43.817Z,79.59
2018-08-11T02:53:13.496Z,79.54
2018-08-11T02:55:43.246Z,81.17
2018-08-11T02:58:12.888Z,80.65
2018-08-11T03:00:42.552Z,80.66
2018-08-11T03:03:12.237Z,80.08
2018-08-11T03:05:41.966Z,79.58
2018-08-11T03:08:11.770Z,78.60
2018-08-11T03:10:41.552Z,79.87
2018-08-11T03:13:11.214Z,80.19
2018-08-11T03:15:40.857Z,78.67
2018-08-11T03:18:10.552Z,78.36
2018-08-11T03:20:40.236Z,78.58
2018-08-11T03:23:10.053Z,77.43
2018-08-11T03:25:39.721Z,77.50
2018-08-11T03:28:09.441Z,78.06
2018-08-11T03:30:39.218Z,79.01
2018-08-11T03:33:08.886Z,79.08
2018-08-11T03:35:39.487Z,79.60
2018-08-11T03:38:09.308Z,79.44
2018-08-11T03:40:38.980Z,80.01
2018-08-11T03:43:08.691Z,79.48
2018-08-11T03:45:38.387Z,79.31
2018-08-11T03:48:08.033Z,79.21
2018-08-11T03:50:37.718Z,79.92
2018-08-11T03:53:07.641Z,79.74
2018-08-11T03:55:37.351Z,79.86
2018-08-11T03:58:07.693Z,79.87
2018-08-11T04:00:37.353Z,79.94
2018-08-11T04:03:07.141Z,80.70
2018-08-11T04:05:36.824Z,80.71
2018-08-11T04:08:06.589Z,81.40
2018-08-11T04:10:36.853Z,81.43
2018-08-11T04:13:06.628Z,81.27
2018-08-11T04:15:36.548Z,82.04
2018-08-11T04:18:06.202Z,82.61
2018-08-11T04:20:35.932Z,82.79
2018-08-11T04:23:05.599Z,83.33
2018-08-11T04:25:35.342Z,83.57
2018-08-11T04:28:05.023Z,83.47
2018-08-11T04:30:34.665Z,83.84
2018-08-11T04:33:04.461Z,83.84
2018-08-11T04:35:34.216Z,83.70
2018-08-11T04:38:03.910Z,83.74
2018-08-11T04:40:33.542Z,84.20
2018-08-11T04:43:03.297Z,83.82
2018-08-11T04:45:33.014Z,83.33
2018-08-11T04:48:02.659Z,83.29
2018-08-11T04:50:32.396Z,83.13
2018-08-11T04:53:02.132Z,83.18
2018-08-11T04:55:31.851Z,82.85
2018-08-11T04:58:01.517Z,81.93
2018-08-11T05:00:31.159Z,81.21
2018-08-11T05:03:00.809Z,81.11
2018-08-11T05:05:30.475Z,82.24
2018-08-11T05:08:00.085Z,82.10
2018-08-11T05:10:29.720Z,82.48
2018-08-11T05:12:59.681Z,82.55
2018-08-11T05:15:29.330Z,83.70
2018-08-11T05:17:59.015Z,84.43
2018-08-11T05:20:29.113Z,83.10
2018-08-11T05:22:58.887Z,83.02
2018-08-11T05:25:28.573Z,83.45
2018-08-11T05:27:58.263Z,83.46
2018-08-11T05:30:27.923Z,83.02
2018-08-11T05:32:57.591Z,82.24
2018-08-11T05:35:27.344Z,82.13
2018-08-11T05:37:56.992Z,80.76
2018-08-11T05:40:26.702Z,80.45
2018-08-11T05:42:56.320Z,80.16
2018-08-11T05:45:26.441Z,79.68
2018-08-11T05:47:56.121Z,78.65
2018-08-11T05:50:25.772Z,78.74
2018-08-11T05:52:55.460Z,78.42
2018-08-11T05:55:25.114Z,76.86
2018-08-11T05:57:54.787Z,77.04
2018-08-11T06:00:24.425Z,77.11
2018-08-11T06:02:54.217Z,76.15
2018-08-11T06:05:23.901Z,75.24
2018-08-11T06:07:53.558Z,74.11
2018-08-11T06:10:23.242Z,73.86
2018-08-11T06:12:53.127Z,72.68
2018-08-11T06:15:22.793Z,71.35
2018-08-11T06:17:52.504Z,70.28
2018-08-11T06:20:22.240Z,69.57
2018-08-11T06:22:51.893Z,70.76
2018-08-11T06:25:21.805Z,70.93
2018-08-11T06:27:51.493Z,70.84
2018-08-11T06:30:21.273Z,70.65
2018-08-11T06:32:51.086Z,70.33
2018-08-11T06:35:20.768Z,69.49
2018-08-11T06:37:50.440Z,68.86
2018-08-11T06:40:20.187Z,65.67
2018-08-11T06:42:49.832Z,65.10
2018-08-11T06:45:20.857Z,64.47
2018-08-11T06:47:50.768Z,65.36
2018-08-11T06:50:23.465Z,66.19
2018-08-11T06:52:53.188Z,63.83
2018-08-11T06:55:22.858Z,61.79
2018-08-11T06:57:52.705Z,59.75
2018-08-11T07:00:22.405Z,60.66
2018-08-11T07:02:52.029Z,62.70
2018-08-11T07:05:21.641Z,62.64
2018-08-11T07:07:51.265Z,63.44
2018-08-11T07:10:20.996Z,60.00
2018-08-11T07:12:50.677Z,56.47
2018-08-11T07:15:20.488Z,54.28
2018-08-11T07:17:50.161Z,49.54
2018-08-11T07:20:19.835Z,47.60
2018-08-11T07:22:49.509Z,46.77
2018-08-11T07:25:19.222Z,50.82
2018-08-11T07:27:48.921Z,54.49
2018-08-11T07:30:18.721Z,55.98
2018-08-11T07:32:48.458Z,58.19
2018-08-11T07:35:18.195Z,58.67
2018-08-11T07:37:48.072Z,57.23
2018-08-11T07:40:17.846Z,54.19
2018-08-11T07:42:47.541Z,53.65
2018-08-11T07:45:17.247Z,55.17
2018-08-11T07:47:47.155Z,57.22
2018-08-11T07:50:16.958Z,58.48
2018-08-11T07:52:46.994Z,53.51
2018-08-11T07:55:16.769Z,49.71
2018-08-11T07:57:46.440Z,45.71
2018-08-11T08:00:16.258Z,48.26
2018-08-11T08:02:45.873Z,49.58
2018-08-11T08:05:15.546Z,47.38
2018-08-11T08:07:45.262Z,41.27
2018-08-11T08:10:14.902Z,41.17
2018-08-11T08:12:44.613Z,43.84
2018-08-11T08:15:14.259Z,39.83
2018-08-11T08:17:44.014Z,35.92
2018-08-11T08:20:13.699Z,38.40
2018-08-11T08:22:43.399Z,37.98
2018-08-11T08:25:13.145Z,41.01
2018-08-11T08:27:42.870Z,43.79
2018-08-11T08:30:13.249Z,43.23
2018-08-11T08:32:42.910Z,38.00
2018-08-11T08:35:12.690Z,36.62
2018-08-11T08:37:42.389Z,37.97
2018-08-11T08:40:12.112Z,39.89
2018-08-11T08:42:41.851Z,41.41
2018-08-11T08:45:12.243Z,38.51
2018-08-11T08:47:42.078Z,40.08
2018-08-11T08:50:11.825Z,38.92
2018-08-11T08:52:41.694Z,37.66
2018-08-11T08:55:11.590Z,35.72
2018-08-11T08:57:41.273Z,36.98
2018-08-11T09:00:11.050Z,36.66
2018-08-11T09:02:40.806Z,33.54
2018-08-11T09:05:10.563Z,33.33
2018-08-11T09:07:40.281Z,35.85
2018-08-11T09:10:10.150Z,37.32
2018-08-11T09:12:39.948Z,35.12
2018-08-11T09:15:09.836Z,37.69
2018-08-11T09:17:39.597Z,40.81
2018-08-11T09:20:09.484Z,38.51
2018-08-11T09:22:39.337Z,33.78
2018-08-11T09:25:09.021Z,32.19
2018-08-11T09:27:38.733Z,29.69
2018-08-11T09:30:08.795Z,29.78
2018-08-11T09:32:38.591Z,29.22
2018-08-11T09:35:08.471Z,31.89
2018-08-11T09:37:38.293Z,36.85
2018-08-11T09:40:07.966Z,37.30
2018-08-11T09:42:37.652Z,40.37
2018-08-11T09:45:07.529Z,39.49
2018-08-11T09:47:37.215Z,41.20
2018-08-11T09:50:06.885Z,41.87
2018-08-11T09:52:36.590Z,39.25
2018-08-11T09:55:06.395Z,36.00
2018-08-11T09:57:36.389Z,34.20
2018-08-11T10:00:08.973Z,36.24
2018-08-11T10:02:38.753Z,33.30
2018-08-11T10:05:08.548Z,32.38
2018-08-11T10:07:38.161Z,34.59
2018-08-11T10:10:07.922Z,35.51
2018-08-11T10:12:37.695Z,36.74
2018-08-11T10:15:07.374Z,37.94
2018-08-11T10:17:37.168Z,34.26
2018-08-11T10:20:07.239Z,33.94
2018-08-11T10:22:36.959Z,35.43
2018-08-11T10:25:06.659Z,34.73
2018-08-11T10:27:36.396Z,32.12
2018-08-11T10:30:07.978Z,31.41
2018-08-11T10:32:37.679Z,31.33
2018-08-11T10:35:07.608Z,28.26
2018-08-11T10:37:37.262Z,28.84
2018-08-11T10:40:07.428Z,29.46
2018-08-11T10:42:37.104Z,29.17
2018-08-11T10:45:06.899Z,26.23
2018-08-11T10:47:36.666Z,29.26
2018-08-11T10:50:06.966Z,29.67
2018-08-11T10:52:36.805Z,28.89
2018-08-11T10:55:06.597Z,25.32
2018-08-11T10:57:36.293Z,26.34
2018-08-11T11:00:06.588Z,25.03
2018-08-11T11:02:36.355Z,25.90
2018-08-11T11:05:06.108Z,26.31
2018-08-11T11:07:35.797Z,29.46
2018-08-11T11:10:05.893Z,31.89
2018-08-11T11:12:35.557Z,33.72
2018-08-11T11:15:06.299Z,31.87
2018-08-11T11:17:35.940Z,28.26
2018-08-11T11:20:07.987Z,26.76
2018-08-11T11:22:37.804Z,30.69
2018-08-11T11:25:07.553Z,32.93
2018-08-11T11:27:37.412Z,35.92
2018-08-11T11:30:07.508Z,38.00
2018-08-11T11:32:37.504Z,32.98
2018-08-11T11:35:07.626Z,30.83
2018-08-11T11:37:37.432Z,30.93
2018-08-11T11:40:07.650Z,33.17
2018-08-11T11:42:37.427Z,35.74
2018-08-11T11:45:07.430Z,35.42
2018-08-11T11:47:37.089Z,33.38
2018-08-11T11:50:07.037Z,32.00
2018-08-11T11:52:36.938Z,30.73
2018-08-11T11:55:06.705Z,29.26
2018-08-11T11:57:36.385Z,28.57
2018-08-11T12:00:06.906Z,28.10
2018-08-11T12:02:36.692Z,28.65
2018-08-11T12:05:06.544Z,27.78
2018-08-11T12:07:36.286Z,27.28
2018-08-11T12:10:06.229Z,28.54
2018-08-11T12:12:35.953Z,28.44
2018-08-11T12:15:06.046Z,28.41
2018-08-11T12:17:35.730Z,28.89
2018-08-11T12:20:05.936Z,28.85
2018-08-11T12:22:35.765Z,29.28
2018-08-11T12:25:06.047Z,29.80
2018-08-11T12:27:35.705Z,29.68
2018-08-11T12:30:07.833Z,27.13
2018-08-11T12:32:37.469Z,27.82
2018-08-11T12:35:07.149Z,30.55
2018-08-11T12:37:36.892Z,33.95
2018-08-11T12:40:06.946Z,33.94
2018-08-11T12:42:36.629Z,31.86
2018-08-11T12:45:06.546Z,34.45
2018-08-11T12:47:36.183Z,34.39
2018-08-11T12:50:05.960Z,35.62
2018-08-11T12:52:35.658Z,33.46
2018-08-11T12:55:05.710Z,32.49
2018-08-11T12:57:35.412Z,30.61
2018-08-11T13:00:06.462Z,29.66
2018-08-11T13:02:36.236Z,29.79
2018-08-11T13:05:06.088Z,30.45
2018-08-11T13:07:35.849Z,30.73
2018-08-11T13:10:06.903Z,29.99
2018-08-11T13:12:36.656Z,30.73
2018-08-11T13:15:07.113Z,32.40
2018-08-11T13:17:36.901Z,33.43
2018-08-11T13:20:07.862Z,33.45
2018-08-11T13:22:37.595Z,33.41
2018-08-11T13:25:07.315Z,30.73
2018-08-11T13:27:37.001Z,29.85
2018-08-11T13:30:08.344Z,28.83
2018-08-11T13:32:38.168Z,29.69
2018-08-11T13:35:07.933Z,30.31
2018-08-11T13:37:37.573Z,31.65
2018-08-11T13:40:07.736Z,29.98
2018-08-11T13:42:37.557Z,26.95
2018-08-11T13:45:07.317Z,27.04
2018-08-11T13:47:37.043Z,26.18
2018-08-11T13:51:37.494Z,26.74
2018-08-11T13:54:07.589Z,26.97
2018-08-11T13:56:38.181Z,26.49
2018-08-11T13:59:08.449Z,25.90
2018-08-11T14:01:38.210Z,27.54
2018-08-11T14:04:07.889Z,30.00
2018-08-11T14:06:37.705Z,29.57
2018-08-11T14:09:09.027Z,29.34
2018-08-11T14:11:38.749Z,29.14
2018-08-11T14:14:08.570Z,30.14
2018-08-11T14:16:38.210Z,30.91
2018-08-11T14:19:08.296Z,30.77
2018-08-11T14:21:38.013Z,30.09
2018-08-11T14:24:07.982Z,28.31
2018-08-11T14:26:37.630Z,26.96
2018-08-11T14:29:07.763Z,28.46
2018-08-11T14:31:37.508Z,28.47
2018-08-11T14:34:07.330Z,28.48
2018-08-11T14:36:36.984Z,27.50
2018-08-11T14:39:09.677Z,27.29
2018-08-11T14:41:39.653Z,25.69
2018-08-11T14:44:09.615Z,26.43
2018-08-11T14:46:39.319Z,23.72
2018-08-11T14:49:09.005Z,26.19
2018-08-11T14:51:38.742Z,25.61
2018-08-11T14:54:08.592Z,26.09
2018-08-11T14:56:38.374Z,25.52
2018-08-11T14:59:08.040Z,26.34
2018-08-11T15:01:37.775Z,24.95
2018-08-11T15:04:07.750Z,24.63
2018-08-11T15:06:37.496Z,25.80
2018-08-11T15:09:10.121Z,27.02
2018-08-11T15:11:40.165Z,27.19
2018-08-11T15:14:09.924Z,28.88
2018-08-11T15:16:39.666Z,27.78
2018-08-11T15:19:09.448Z,26.48
2018-08-11T15:21:39.296Z,28.39
2018-08-11T15:24:09.232Z,27.66
2018-08-11T15:26:38.908Z,27.85
2018-08-11T15:29:09.066Z,27.45
2018-08-11T15:31:38.804Z,28.65
2018-08-11T15:34:08.538Z,29.17
2018-08-11T15:36:38.398Z,28.68
2018-08-11T15:39:11.754Z,28.83
2018-08-11T15:41:41.734Z,29.94
2018-08-11T15:44:11.414Z,28.43
2018-08-11T15:46:41.128Z,28.09
2018-08-11T15:49:10.828Z,28.78
2018-08-11T15:51:40.566Z,28.82
2018-08-11T15:54:10.330Z,28.69
2018-08-11T15:56:40.081Z,28.76
2018-08-11T15:59:09.793Z,28.79
2018-08-11T16:01:39.646Z,28.66
2018-08-11T16:04:09.337Z,28.48
2018-08-11T16:06:39.084Z,29.22
2018-08-11T16:09:10.504Z,30.00
2018-08-11T16:11:41.101Z,29.89
2018-08-11T16:14:10.804Z,29.80
2018-08-11T16:16:40.469Z,29.74
2018-08-11T16:19:10.201Z,28.82
2018-08-11T16:21:39.941Z,29.60
2018-08-11T16:24:09.615Z,27.99
2018-08-11T16:26:39.476Z,28.92
2018-08-11T16:29:09.172Z,28.76
2018-08-11T16:31:39.893Z,27.55
2018-08-11T16:34:09.545Z,28.19
2018-08-11T16:36:39.222Z,28.04
2018-08-11T16:39:10.321Z,29.14
2018-08-11T16:41:40.617Z,30.16
2018-08-11T16:44:10.269Z,31.09
2018-08-11T16:46:39.963Z,30.93
2018-08-11T16:49:09.650Z,32.57
2018-08-11T16:51:39.446Z,32.71
2018-08-11T16:54:09.130Z,33.38
2018-08-11T16:56:38.826Z,32.86
2018-08-11T16:59:08.558Z,34.25
2018-08-11T17:01:38.289Z,34.10
2018-08-11T17:04:08.065Z,33.84
2018-08-11T17:06:37.763Z,34.52
2018-08-11T17:09:10.878Z,34.28
2018-08-11T17:11:40.561Z,33.99
2018-08-11T17:14:10.274Z,34.15
2018-08-11T17:16:39.957Z,34.22
2018-08-11T17:19:09.788Z,34.47
2018-08-11T17:21:39.474Z,34.51
2018-08-11T17:24:09.310Z,33.73
2018-08-11T17:26:38.972Z,33.83
2018-08-11T17:29:08.649Z,35.18
2018-08-11T17:31:38.454Z,35.21
2018-08-11T17:34:08.261Z,35.31
2018-08-11T17:36:38.022Z,35.41
2018-08-11T17:39:10.471Z,35.57
2018-08-11T17:41:40.457Z,34.95
2018-08-11T17:44:10.170Z,35.74
2018-08-11T17:46:39.865Z,35.62
2018-08-11T17:49:09.596Z,35.72
2018-08-11T17:51:39.262Z,35.85
2018-08-11T17:54:08.984Z,36.38
2018-08-11T17:56:38.686Z,36.89
2018-08-11T17:59:08.500Z,37.23
2018-08-11T18:01:38.198Z,37.16
2018-08-11T18:04:07.889Z,37.09
2018-08-11T18:06:37.580Z,37.44
2018-08-11T18:09:10.683Z,37.94
2018-08-11T18:11:40.805Z,39.15
2018-08-11T18:14:10.917Z,39.27
2018-08-11T18:16:40.627Z,38.17
2018-08-11T18:19:10.408Z,38.34
2018-08-11T18:21:40.080Z,39.27
2018-08-11T18:24:09.722Z,41.03
2018-08-11T18:26:39.397Z,40.26
2018-08-11T18:29:09.104Z,39.57
2018-08-11T18:31:38.877Z,41.26
2018-08-11T18:34:08.817Z,41.45
2018-08-11T18:36:38.558Z,42.99
2018-08-11T18:39:12.386Z,43.04
2018-08-11T18:41:42.350Z,43.00
2018-08-11T18:44:12.212Z,43.92
2018-08-11T18:46:41.967Z,44.17
2018-08-11T18:49:11.742Z,44.55
2018-08-11T18:51:41.503Z,45.27
2018-08-11T18:54:11.300Z,45.04
2018-08-11T18:56:41.016Z,45.22
2018-08-11T18:59:10.994Z,46.21
2018-08-11T19:01:40.813Z,47.28
2018-08-11T19:04:10.616Z,46.44
2018-08-11T19:06:40.385Z,47.75
2018-08-11T19:09:12.680Z,48.02
2018-08-11T19:11:42.697Z,47.61
2018-08-11T19:14:12.409Z,49.18
2018-08-11T19:16:42.746Z,49.50
2018-08-11T19:19:12.642Z,49.54
2018-08-11T19:21:42.403Z,49.81
2018-08-11T19:24:12.063Z,50.43
2018-08-11T19:26:41.862Z,50.57
2018-08-11T19:29:11.488Z,51.36
2018-08-11T19:31:41.351Z,50.75
2018-08-11T19:34:11.157Z,52.72
2018-08-11T19:36:40.921Z,52.07
2018-08-11T19:39:12.544Z,53.77
2018-08-11T19:41:42.567Z,53.10
2018-08-11T19:44:12.371Z,51.10
2018-08-11T19:46:42.411Z,52.36
2018-08-11T19:49:12.182Z,53.21
2018-08-11T19:51:42.126Z,53.29
2018-08-11T19:54:12.136Z,53.63
2018-08-11T19:56:48.425Z,54.29
2018-08-11T19:59:18.512Z,54.51
2018-08-11T20:01:48.318Z,55.14
2018-08-11T20:04:18.138Z,56.61
2018-08-11T20:06:48.015Z,56.71
2018-08-11T20:09:17.808Z,56.77
2018-08-11T20:11:47.539Z,57.38
2018-08-11T20:14:17.250Z,58.20
2018-08-11T20:16:47.261Z,58.15
2018-08-11T20:19:17.182Z,58.72
2018-08-11T20:21:46.888Z,58.76
2018-08-11T20:24:16.783Z,59.00
2018-08-11T20:26:46.536Z,59.16
2018-08-11T20:29:16.433Z,58.83
2018-08-11T20:34:24.735Z,59.18
2018-08-11T20:36:54.681Z,60.24
2018-08-11T20:39:24.459Z,59.80
2018-08-11T20:41:54.151Z,61.31
2018-08-11T20:44:23.856Z,60.69
2018-08-11T20:46:53.566Z,60.78
2018-08-11T20:49:23.288Z,61.56
2018-08-11T20:51:53.060Z,61.75
2018-08-11T20:54:22.914Z,61.34
2018-08-11T20:56:52.871Z,62.12
2018-08-11T20:59:22.740Z,61.87
2018-08-11T21:01:52.604Z,62.84
2018-08-11T21:04:22.308Z,63.76
2018-08-11T21:06:52.133Z,63.49
2018-08-11T21:09:21.969Z,63.15
2018-08-11T21:11:51.774Z,63.50
2018-08-11T21:14:21.621Z,63.03
2018-08-11T21:16:51.417Z,62.41
2018-08-11T21:19:21.123Z,62.88
2018-08-11T21:21:50.861Z,63.65
2018-08-11T21:24:20.665Z,64.58
2018-08-11T21:26:50.335Z,63.72
2018-08-11T21:29:20.105Z,63.28
2018-08-11T21:31:49.825Z,64.00
2018-08-11T21:34:19.542Z,63.77
2018-08-11T21:36:49.517Z,65.51
2018-08-11T21:39:19.231Z,65.24
2018-08-11T21:41:49.035Z,66.05
2018-08-11T21:44:18.705Z,65.63
2018-08-11T21:46:48.422Z,66.54
2018-08-11T21:49:18.145Z,65.68
2018-08-11T21:51:48.045Z,65.71
2018-08-11T21:54:17.738Z,65.50
2018-08-11T21:56:47.487Z,65.27
2018-08-11T21:59:17.317Z,65.50
2018-08-11T22:01:47.045Z,65.89
2018-08-11T22:04:16.895Z,65.74
2018-08-11T22:06:46.581Z,66.54
2018-08-11T22:09:16.925Z,66.53
2018-08-11T22:11:46.700Z,67.11
2018-08-11T22:14:16.414Z,67.44
2018-08-11T22:16:46.141Z,67.97
2018-08-11T22:19:15.921Z,68.10
2018-08-11T22:21:45.585Z,68.54
2018-08-11T22:24:15.469Z,67.03
2018-08-11T22:26:45.189Z,67.92
2018-08-11T22:29:14.838Z,67.69
2018-08-11T22:31:44.673Z,67.49
2018-08-11T22:34:14.571Z,68.57
2018-08-11T22:36:44.250Z,68.30
2018-08-11T22:39:13.946Z,68.23
2018-08-11T22:41:43.668Z,68.94
2018-08-11T22:44:13.458Z,69.85
2018-08-11T22:46:43.305Z,70.24
2018-08-11T22:49:13.161Z,69.75
2018-08-11T22:51:42.962Z,69.99
2018-08-11T22:54:12.766Z,70.64
2018-08-11T22:56:42.492Z,70.52
2018-08-11T22:59:12.416Z,70.83
2018-08-11T23:01:42.115Z,71.60
2018-08-11T23:04:11.845Z,72.29
2018-08-11T23:06:41.569Z,71.42
2018-08-11T23:09:11.305Z,72.03
2018-08-11T23:11:41.104Z,72.90
2018-08-11T23:14:10.872Z,73.05
2018-08-11T23:16:40.657Z,74.20
2018-08-11T23:19:10.338Z,74.41
2018-08-11T23:21:40.052Z,74.17
2018-08-11T23:24:09.868Z,74.37
2018-08-11T23:26:39.544Z,74.49
2018-08-11T23:29:09.341Z,74.31
2018-08-11T23:31:39.073Z,74.60
2018-08-11T23:34:08.811Z,74.83
2018-08-11T23:36:38.622Z,75.02
2018-08-11T23:39:09.968Z,75.41
2018-08-11T23:41:40.202Z,76.33
2018-08-11T23:44:10.026Z,76.81
2018-08-11T23:46:39.863Z,77.16
2018-08-11T23:49:09.572Z,76.68
2018-08-11T23:51:39.264Z,76.91
2018-08-11T23:54:09.092Z,76.65
2018-08-11T23:56:38.868Z,77.11
2018-08-11T23:59:08.582Z,76.91
